Bentley, Mississippi
Current Conditions -  °F | °C
As of 2:50 PM on Thursday 20 Nov 2014 (Local Time) from KGTR Reporting Station
Broken Clouds Broken Clouds  
Wind Chill: 61°   Ceiling: 7000
Heat Index: 61°   Visibility: 10mi
Dew Point: 45°   Wind: 0mph
Humidity: 55%   Direction: NA
Pressure: 30.19"   Gusts: NA
Location:  33.6711°N, 89.1329°W
Report Text: KGTR 202050Z 00000KT 10SM BKN070 16/07 A3019
Loading
Personal Weather Stations






























Interactive Weather Map New forecast layout! Learn more

10-Day Weather Forecast

Advertisements
Track Severe Weather on mobile